Mactan Cebu International Airport
RPVM : now visible

Airfield :











YOU CAN JOIN US ON...

 
LOGIN :

Register | Disclaimer

   EN    FR    IT 

 









Legend :    VFR   Marginal VFR   IFR   Intensive IFR   Very Intensive IFR
Visi :
Ceiling :
>= 8 km
>= 3000ft
5 to 8 km
1000 to 3000 ft
1500m to 5 km
500 to 1000 ft
800 to 1500m
200 to 500 ft
< 800m
< 200 ft
Symbols :   Thunderstorms  Fog  Heavy snow  Heavy precipitations  Wind > 20 kt






- Airport Elevation : 31 ft
- IATA code : CEB


RPVM - Mactan Cebu International

CURRENT METAR :
  • 150800Z 23012KT 9999 FEW018CB SCT300 32/24 Q1007 RMK A2974 CB NE

EXPIRED METARs :
  • 150700Z 21010KT 9999 FEW018CB SCT300 32/24 Q1007 RMK A2974 CB NW
  • 150600Z 21009KT 180V250 9999 FEW020 BKN300 32/23 Q1007 RMK A2974

TAF TAF RPVM
Valid from the 15 at 06:00 until the 16 at 12:00 UTC


150500Z 1506/1612 22006KT 9999 FEW020 BKN300
TEMPO 1506/1512 23008KT FEW018CB BKN250
TEMPO 1512/1518 25007KT -SHRA FEW020 BKN100
RPHI FIR / Asia



MET'MAP, your aeronautical weather chart ! - Copyright ORBIFLY December 2007 - Disclaimer

ORBIFLY MET'MAP TEAM :

Programming & Development : Alexandra Zaïnal
Original concept : Baudouin d'Aumeries
Technical & hardware support : Manuel Goepfert
Assistance : Marc-Olivier Méhu




SOURCES & CREDITS :

   NOAA       Earth
Advisory